sensor_id;sensor_type;location;lat;lon;timestamp;pressure;altitude;pressure_sealevel;temperature;humidity
81005;BME280;70472;47.592;17.640;2024-02-21T00:00:01;100707.50;;;7.24;84.36
81005;BME280;70472;47.592;17.640;2024-02-21T00:00:34;100702.88;;;7.26;83.75
81005;BME280;70472;47.592;17.640;2024-02-21T00:01:07;100704.41;;;7.29;83.14
81005;BME280;70472;47.592;17.640;2024-02-21T00:01:39;100704.41;;;7.29;83.06
81005;BME280;70472;47.592;17.640;2024-02-21T00:02:12;100698.22;;;7.28;83.88
81005;BME280;70472;47.592;17.640;2024-02-21T00:02:44;100700.72;;;7.20;84.03
81005;BME280;70472;47.592;17.640;2024-02-21T00:03:17;100700.53;;;7.12;84.59
81005;BME280;70472;47.592;17.640;2024-02-21T00:03:49;100704.16;;;7.11;84.69
81005;BME280;70472;47.592;17.640;2024-02-21T00:04:22;100706.31;;;7.17;84.49
81005;BME280;70472;47.592;17.640;2024-02-21T00:04:54;100695.97;;;7.23;84.37
81005;BME280;70472;47.592;17.640;2024-02-21T00:05:26;100703.56;;;7.28;83.42
81005;BME280;70472;47.592;17.640;2024-02-21T00:05:59;100702.47;;;7.31;83.33
81005;BME280;70472;47.592;17.640;2024-02-21T00:06:32;100701.34;;;7.33;82.94
81005;BME280;70472;47.592;17.640;2024-02-21T00:07:05;100700.19;;;7.26;84.12
81005;BME280;70472;47.592;17.640;2024-02-21T00:07:38;100706.66;;;7.23;84.21
81005;BME280;70472;47.592;17.640;2024-02-21T00:08:10;100702.41;;;7.21;83.76
81005;BME280;70472;47.592;17.640;2024-02-21T00:08:43;100702.69;;;7.18;84.14
81005;BME280;70472;47.592;17.640;2024-02-21T00:09:15;100698.44;;;7.15;84.16
81005;BME280;70472;47.592;17.640;2024-02-21T00:09:48;100704.63;;;7.16;84.23
81005;BME280;70472;47.592;17.640;2024-02-21T00:10:20;100702.47;;;7.10;84.48
81005;BME280;70472;47.592;17.640;2024-02-21T00:10:52;100694.22;;;7.13;84.13
81005;BME280;70472;47.592;17.640;2024-02-21T00:11:25;100697.00;;;7.11;84.54
81005;BME280;70472;47.592;17.640;2024-02-21T00:11:57;100697.41;;;7.07;85.33
81005;BME280;70472;47.592;17.640;2024-02-21T00:12:30;100698.50;;;7.04;85.50
81005;BME280;70472;47.592;17.640;2024-02-21T00:13:02;100702.28;;;7.02;85.68
81005;BME280;70472;47.592;17.640;2024-02-21T00:13:35;100696.94;;;7.02;85.83
81005;BME280;70472;47.592;17.640;2024-02-21T00:14:07;100695.81;;;7.04;85.16
81005;BME280;70472;47.592;17.640;2024-02-21T00:14:40;100691.34;;;7.05;85.36
81005;BME280;70472;47.592;17.640;2024-02-21T00:15:12;100692.97;;;6.96;85.89
81005;BME280;70472;47.592;17.640;2024-02-21T00:15:45;100696.16;;;6.90;85.23
81005;BME280;70472;47.592;17.640;2024-02-21T00:16:17;100697.59;;;6.94;86.07
81005;BME280;70472;47.592;17.640;2024-02-21T00:16:50;100696.22;;;7.00;85.94
81005;BME280;70472;47.592;17.640;2024-02-21T00:17:22;100694.28;;;7.02;85.15
81005;BME280;70472;47.592;17.640;2024-02-21T00:17:54;100695.25;;;7.01;85.32
81005;BME280;70472;47.592;17.640;2024-02-21T00:18:27;100689.66;;;7.04;85.53
81005;BME280;70472;47.592;17.640;2024-02-21T00:19:00;100695.81;;;7.04;86.28
81005;BME280;70472;47.592;17.640;2024-02-21T00:19:33;100693.91;;;7.06;86.36
81005;BME280;70472;47.592;17.640;2024-02-21T00:20:06;100696.44;;;7.08;84.67
81005;BME280;70472;47.592;17.640;2024-02-21T00:20:39;100699.34;;;7.05;85.17
81005;BME280;70472;47.592;17.640;2024-02-21T00:21:11;100693.44;;;7.01;85.16
81005;BME280;70472;47.592;17.640;2024-02-21T00:21:44;100692.13;;;6.95;85.49
81005;BME280;70472;47.592;17.640;2024-02-21T00:22:16;100691.41;;;6.93;86.01
81005;BME280;70472;47.592;17.640;2024-02-21T00:22:48;100695.78;;;6.94;86.05
81005;BME280;70472;47.592;17.640;2024-02-21T00:23:21;100698.03;;;6.99;85.89
81005;BME280;70472;47.592;17.640;2024-02-21T00:23:53;100694.13;;;7.03;85.63
81005;BME280;70472;47.592;17.640;2024-02-21T00:24:26;100690.25;;;7.07;85.61
81005;BME280;70472;47.592;17.640;2024-02-21T00:24:58;100695.72;;;7.06;84.97
81005;BME280;70472;47.592;17.640;2024-02-21T00:25:30;100688.22;;;7.00;85.58
81005;BME280;70472;47.592;17.640;2024-02-21T00:26:03;100695.50;;;6.97;85.79
81005;BME280;70472;47.592;17.640;2024-02-21T00:26:35;100695.78;;;6.94;85.40
81005;BME280;70472;47.592;17.640;2024-02-21T00:27:08;100695.50;;;6.97;85.37
81005;BME280;70472;47.592;17.640;2024-02-21T00:27:40;100685.94;;;6.95;85.77
81005;BME280;70472;47.592;17.640;2024-02-21T00:28:12;100687.88;;;6.93;85.69
81005;BME280;70472;47.592;17.640;2024-02-21T00:28:45;100697.19;;;6.99;85.77
81005;BME280;70472;47.592;17.640;2024-02-21T00:29:17;100691.41;;;6.93;86.46
81005;BME280;70472;47.592;17.640;2024-02-21T00:29:49;100690.69;;;6.91;86.60
81005;BME280;70472;47.592;17.640;2024-02-21T00:30:22;100690.34;;;6.85;87.07
81005;BME280;70472;47.592;17.640;2024-02-21T00:30:54;100691.19;;;6.85;87.18
81005;BME280;70472;47.592;17.640;2024-02-21T00:31:26;100687.31;;;6.89;86.80
81005;BME280;70472;47.592;17.640;2024-02-21T00:31:59;100691.66;;;6.90;86.56
81005;BME280;70472;47.592;17.640;2024-02-21T00:32:31;100690.69;;;6.91;86.56
81005;BME280;70472;47.592;17.640;2024-02-21T00:33:04;100692.66;;;6.89;86.21
81005;BME280;70472;47.592;17.640;2024-02-21T00:33:36;100685.41;;;6.80;87.10
81005;BME280;70472;47.592;17.640;2024-02-21T00:34:09;100691.19;;;6.85;86.57
81005;BME280;70472;47.592;17.640;2024-02-21T00:34:41;100697.00;;;6.90;86.55
81005;BME280;70472;47.592;17.640;2024-02-21T00:35:14;100694.94;;;6.94;86.61
81005;BME280;70472;47.592;17.640;2024-02-21T00:35:47;100694.53;;;6.99;86.37
81005;BME280;70472;47.592;17.640;2024-02-21T00:36:19;100685.09;;;6.94;86.18
81005;BME280;70472;47.592;17.640;2024-02-21T00:36:51;100687.03;;;6.92;86.20
81005;BME280;70472;47.592;17.640;2024-02-21T00:37:24;100688.03;;;6.91;86.50
81005;BME280;70472;47.592;17.640;2024-02-21T00:37:56;100692.66;;;6.89;86.20
81005;BME280;70472;47.592;17.640;2024-02-21T00:38:29;100694.13;;;6.82;86.24
81005;BME280;70472;47.592;17.640;2024-02-21T00:39:01;100685.16;;;6.83;86.04
81005;BME280;70472;47.592;17.640;2024-02-21T00:39:33;100684.66;;;6.89;85.69
81005;BME280;70472;47.592;17.640;2024-02-21T00:40:07;100685.63;;;6.88;85.93
81005;BME280;70472;47.592;17.640;2024-02-21T00:40:39;100687.56;;;6.86;86.36
81005;BME280;70472;47.592;17.640;2024-02-21T00:41:11;100685.34;;;6.91;86.39
81005;BME280;70472;47.592;17.640;2024-02-21T00:41:44;100690.16;;;6.97;85.68
81005;BME280;70472;47.592;17.640;2024-02-21T00:42:16;100695.25;;;7.01;85.13
81005;BME280;70472;47.592;17.640;2024-02-21T00:42:49;100687.97;;;7.03;84.83
81005;BME280;70472;47.592;17.640;2024-02-21T00:43:21;100689.50;;;7.05;84.73
81005;BME280;70472;47.592;17.640;2024-02-21T00:43:53;100682.25;;;7.07;84.87
81005;BME280;70472;47.592;17.640;2024-02-21T00:44:26;100683.78;;;7.10;84.40
81005;BME280;70472;47.592;17.640;2024-02-21T00:44:58;100684.06;;;7.07;85.06
81005;BME280;70472;47.592;17.640;2024-02-21T00:45:31;100688.56;;;7.06;85.55
81005;BME280;70472;47.592;17.640;2024-02-21T00:46:06;100689.13;;;7.10;84.36
81005;BME280;70472;47.592;17.640;2024-02-21T00:46:38;100686.31;;;7.11;84.20
81005;BME280;70472;47.592;17.640;2024-02-21T00:47:10;100688.88;;;7.13;83.75
81005;BME280;70472;47.592;17.640;2024-02-21T00:47:43;100682.81;;;7.11;83.46
81005;BME280;70472;47.592;17.640;2024-02-21T00:48:15;100683.53;;;7.13;82.72
81005;BME280;70472;47.592;17.640;2024-02-21T00:48:48;100688.59;;;7.16;82.93
81005;BME280;70472;47.592;17.640;2024-02-21T00:49:20;100682.88;;;7.20;83.66
81005;BME280;70472;47.592;17.640;2024-02-21T00:49:53;100695.09;;;7.23;83.15
81005;BME280;70472;47.592;17.640;2024-02-21T00:50:25;100683.34;;;7.26;82.13
81005;BME280;70472;47.592;17.640;2024-02-21T00:50:58;100685.88;;;7.27;82.71
81005;BME280;70472;47.592;17.640;2024-02-21T00:51:30;100683.78;;;7.31;81.02
81005;BME280;70472;47.592;17.640;2024-02-21T00:52:03;100682.81;;;7.32;81.23
81005;BME280;70472;47.592;17.640;2024-02-21T00:52:35;100682.94;;;7.30;82.75
81005;BME280;70472;47.592;17.640;2024-02-21T00:53:08;100683.19;;;7.27;83.22
81005;BME280;70472;47.592;17.640;2024-02-21T00:53:40;100680.50;;;7.17;83.95
81005;BME280;70472;47.592;17.640;2024-02-21T00:54:13;100682.88;;;7.20;84.47
81005;BME280;70472;47.592;17.640;2024-02-21T00:54:45;100679.09;;;7.23;84.27
81005;BME280;70472;47.592;17.640;2024-02-21T00:55:18;100680.81;;;7.24;83.72
81005;BME280;70472;47.592;17.640;2024-02-21T00:55:51;100678.00;;;7.26;82.74
81005;BME280;70472;47.592;17.640;2024-02-21T00:56:23;100678.56;;;7.29;82.55
81005;BME280;70472;47.592;17.640;2024-02-21T00:56:55;100672.97;;;7.32;81.41
81005;BME280;70472;47.592;17.640;2024-02-21T00:57:28;100687.31;;;7.31;82.54
81005;BME280;70472;47.592;17.640;2024-02-21T00:58:00;100680.28;;;7.30;83.34
81005;BME280;70472;47.592;17.640;2024-02-21T00:58:32;100678.84;;;7.26;83.08
81005;BME280;70472;47.592;17.640;2024-02-21T00:59:05;100677.16;;;7.25;83.71
81005;BME280;70472;47.592;17.640;2024-02-21T00:59:37;100674.22;;;7.28;83.83
81005;BME280;70472;47.592;17.640;2024-02-21T01:00:10;100677.88;;;7.27;84.39
81005;BME280;70472;47.592;17.640;2024-02-21T01:00:43;100673.75;;;7.23;84.99
81005;BME280;70472;47.592;17.640;2024-02-21T01:01:24;100673.19;;;7.19;84.94
81005;BME280;70472;47.592;17.640;2024-02-21T01:01:57;100670.53;;;7.19;84.64
81005;BME280;70472;47.592;17.640;2024-02-21T01:02:29;100669.81;;;7.17;84.53
81005;BME280;70472;47.592;17.640;2024-02-21T01:03:02;100670.38;;;7.21;85.46
81005;BME280;70472;47.592;17.640;2024-02-21T01:03:34;100673.19;;;7.19;85.69
81005;BME280;70472;47.592;17.640;2024-02-21T01:04:07;100665.56;;;7.15;86.05
81005;BME280;70472;47.592;17.640;2024-02-21T01:04:39;100678.78;;;7.16;85.86
81005;BME280;70472;47.592;17.640;2024-02-21T01:05:11;100666.69;;;7.12;84.94
81005;BME280;70472;47.592;17.640;2024-02-21T01:05:44;100672.97;;;7.11;86.19
81005;BME280;70472;47.592;17.640;2024-02-21T01:06:16;100674.81;;;7.11;86.42
81005;BME280;70472;47.592;17.640;2024-02-21T01:06:49;100666.81;;;7.11;85.91
81005;BME280;70472;47.592;17.640;2024-02-21T01:07:21;100664.97;;;7.11;85.23
81005;BME280;70472;47.592;17.640;2024-02-21T01:07:54;100678.22;;;7.13;85.74
81005;BME280;70472;47.592;17.640;2024-02-21T01:08:26;100672.88;;;7.13;85.61
81005;BME280;70472;47.592;17.640;2024-02-21T01:08:59;100669.75;;;7.08;85.81
81005;BME280;70472;47.592;17.640;2024-02-21T01:09:31;100671.56;;;7.07;85.87
81005;BME280;70472;47.592;17.640;2024-02-21T01:10:04;100671.72;;;7.06;86.96
81005;BME280;70472;47.592;17.640;2024-02-21T01:10:37;100671.56;;;7.07;86.15
81005;BME280;70472;47.592;17.640;2024-02-21T01:11:09;100667.31;;;7.05;85.95
81005;BME280;70472;47.592;17.640;2024-02-21T01:11:41;100669.75;;;7.08;85.76
81005;BME280;70472;47.592;17.640;2024-02-21T01:12:14;100678.72;;;7.07;86.75
81005;BME280;70472;47.592;17.640;2024-02-21T01:12:46;100671.44;;;7.09;87.18
81005;BME280;70472;47.592;17.640;2024-02-21T01:13:18;100673.41;;;7.07;86.10
81005;BME280;70472;47.592;17.640;2024-02-21T01:13:51;100673.13;;;7.10;85.72
81005;BME280;70472;47.592;17.640;2024-02-21T01:14:23;100673.59;;;7.15;87.19
81005;BME280;70472;47.592;17.640;2024-02-21T01:14:56;100671.75;;;7.15;86.69
81005;BME280;70472;47.592;17.640;2024-02-21T01:15:28;100671.44;;;7.09;86.57
81005;BME280;70472;47.592;17.640;2024-02-21T01:16:00;100668.63;;;7.10;86.96
81005;BME280;70472;47.592;17.640;2024-02-21T01:16:33;100672.41;;;7.08;86.73
81005;BME280;70472;47.592;17.640;2024-02-21T01:17:05;100668.06;;;7.07;87.25
81005;BME280;70472;47.592;17.640;2024-02-21T01:17:38;100675.09;;;7.08;86.98
81005;BME280;70472;47.592;17.640;2024-02-21T01:18:10;100674.63;;;7.03;86.51
81005;BME280;70472;47.592;17.640;2024-02-21T01:18:43;100666.38;;;7.06;86.36
81005;BME280;70472;47.592;17.640;2024-02-21T01:19:15;100668.06;;;7.07;86.21
81005;BME280;70472;47.592;17.640;2024-02-21T01:19:48;100675.09;;;7.08;86.71
81005;BME280;70472;47.592;17.640;2024-02-21T01:20:21;100672.56;;;7.06;87.19
81005;BME280;70472;47.592;17.640;2024-02-21T01:20:53;100673.66;;;7.04;87.06
81005;BME280;70472;47.592;17.640;2024-02-21T01:21:26;100670.28;;;7.02;87.85
81005;BME280;70472;47.592;17.640;2024-02-21T01:21:58;100675.34;;;7.05;88.14
81005;BME280;70472;47.592;17.640;2024-02-21T01:22:32;100671.72;;;7.06;88.23
81005;BME280;70472;47.592;17.640;2024-02-21T01:23:04;100676.63;;;7.10;88.66
81005;BME280;70472;47.592;17.640;2024-02-21T01:23:37;100668.59;;;7.01;88.72
81005;BME280;70472;47.592;17.640;2024-02-21T01:24:09;100666.16;;;6.97;88.16
81005;BME280;70472;47.592;17.640;2024-02-21T01:24:42;100670.41;;;7.00;88.59
81005;BME280;70472;47.592;17.640;2024-02-21T01:25:14;100671.63;;;6.96;88.64
81005;BME280;70472;47.592;17.640;2024-02-21T01:25:47;100666.75;;;7.01;88.36
81005;BME280;70472;47.592;17.640;2024-02-21T01:26:19;100672.19;;;7.00;88.69
81005;BME280;70472;47.592;17.640;2024-02-21T01:26:52;100671.25;;;7.01;88.65
81005;BME280;70472;47.592;17.640;2024-02-21T01:27:24;100670.28;;;7.02;88.28
81005;BME280;70472;47.592;17.640;2024-02-21T01:27:56;100670.00;;;7.05;88.48
81005;BME280;70472;47.592;17.640;2024-02-21T01:28:29;100671.25;;;7.01;88.40
81005;BME280;70472;47.592;17.640;2024-02-21T01:29:01;100671.34;;;6.99;88.79
81005;BME280;70472;47.592;17.640;2024-02-21T01:29:34;100668.31;;;7.04;88.87
81005;BME280;70472;47.592;17.640;2024-02-21T01:30:07;100665.25;;;7.08;89.15
81005;BME280;70472;47.592;17.640;2024-02-21T01:30:40;100664.13;;;7.11;88.73
81005;BME280;70472;47.592;17.640;2024-02-21T01:31:12;100672.97;;;7.11;89.35
81005;BME280;70472;47.592;17.640;2024-02-21T01:31:45;100661.38;;;7.12;88.82
81005;BME280;70472;47.592;17.640;2024-02-21T01:32:17;100665.41;;;7.07;89.42
81005;BME280;70472;47.592;17.640;2024-02-21T01:32:50;100659.00;;;6.98;89.86
81005;BME280;70472;47.592;17.640;2024-02-21T01:33:22;100664.72;;;6.93;89.58
81005;BME280;70472;47.592;17.640;2024-02-21T01:33:54;100660.81;;;6.97;90.01
81005;BME280;70472;47.592;17.640;2024-02-21T01:34:27;100661.53;;;7.00;89.05
81005;BME280;70472;47.592;17.640;2024-02-21T01:35:01;100658.47;;;7.04;88.93
81005;BME280;70472;47.592;17.640;2024-02-21T01:35:35;100666.63;;;7.03;88.73
81005;BME280;70472;47.592;17.640;2024-02-21T01:36:07;100660.81;;;6.97;88.69
81005;BME280;70472;47.592;17.640;2024-02-21T01:36:40;100660.81;;;6.97;89.00
81005;BME280;70472;47.592;17.640;2024-02-21T01:37:12;100656.19;;;7.00;89.22
81005;BME280;70472;47.592;17.640;2024-02-21T01:37:45;100656.19;;;7.00;89.20
81005;BME280;70472;47.592;17.640;2024-02-21T01:38:17;100657.06;;;7.00;89.58
81005;BME280;70472;47.592;17.640;2024-02-21T01:38:50;100655.63;;;6.96;89.57
81005;BME280;70472;47.592;17.640;2024-02-21T01:39:22;100653.34;;;6.91;89.62
81005;BME280;70472;47.592;17.640;2024-02-21T01:39:55;100662.47;;;6.89;89.84
81005;BME280;70472;47.592;17.640;2024-02-21T01:40:27;100656.47;;;6.96;89.41
81005;BME280;70472;47.592;17.640;2024-02-21T01:41:00;100665.47;;;6.95;88.88
81005;BME280;70472;47.592;17.640;2024-02-21T01:41:33;100655.34;;;6.99;89.08
81005;BME280;70472;47.592;17.640;2024-02-21T01:42:05;100658.28;;;6.96;89.33
81005;BME280;70472;47.592;17.640;2024-02-21T01:42:39;100659.28;;;6.95;89.17
81005;BME280;70472;47.592;17.640;2024-02-21T01:43:20;100658.03;;;6.99;89.23
81005;BME280;70472;47.592;17.640;2024-02-21T01:43:52;100652.13;;;6.95;88.88
81005;BME280;70472;47.592;17.640;2024-02-21T01:44:25;100655.25;;;7.01;89.43
81005;BME280;70472;47.592;17.640;2024-02-21T01:44:58;100656.66;;;7.05;88.86
81005;BME280;70472;47.592;17.640;2024-02-21T01:45:30;100658.63;;;7.03;88.73
81005;BME280;70472;47.592;17.640;2024-02-21T01:46:03;100653.16;;;7.04;89.30
81005;BME280;70472;47.592;17.640;2024-02-21T01:46:35;100653.03;;;7.06;89.33
81005;BME280;70472;47.592;17.640;2024-02-21T01:47:08;100648.66;;;7.05;89.09
81005;BME280;70472;47.592;17.640;2024-02-21T01:47:41;100654.97;;;7.04;89.32
81005;BME280;70472;47.592;17.640;2024-02-21T01:48:13;100652.13;;;6.95;89.53
81005;BME280;70472;47.592;17.640;2024-02-21T01:48:46;100648.00;;;6.91;89.35
81005;BME280;70472;47.592;17.640;2024-02-21T01:49:21;100653.66;;;6.98;89.70
81005;BME280;70472;47.592;17.640;2024-02-21T01:49:55;100649.78;;;7.02;89.23
81005;BME280;70472;47.592;17.640;2024-02-21T01:50:29;100656.47;;;6.96;89.00
81005;BME280;70472;47.592;17.640;2024-02-21T01:51:04;100643.66;;;6.90;89.23
81005;BME280;70472;47.592;17.640;2024-02-21T01:51:37;100649.44;;;6.95;88.93
81005;BME280;70472;47.592;17.640;2024-02-21T01:52:14;100648.28;;;6.88;89.31
81005;BME280;70472;47.592;17.640;2024-02-21T01:52:49;100643.91;;;6.87;89.38
81005;BME280;70472;47.592;17.640;2024-02-21T01:53:32;100649.66;;;6.83;89.50
81005;BME280;70472;47.592;17.640;2024-02-21T01:54:07;100648.16;;;6.90;89.66
81005;BME280;70472;47.592;17.640;2024-02-21T01:54:39;100647.78;;;6.94;89.14
81005;BME280;70472;47.592;17.640;2024-02-21T01:55:14;100646.66;;;6.97;89.53
81005;BME280;70472;47.592;17.640;2024-02-21T01:55:47;100648.16;;;6.90;89.25
81005;BME280;70472;47.592;17.640;2024-02-21T01:56:20;100647.16;;;6.91;89.53
81005;BME280;70472;47.592;17.640;2024-02-21T01:56:53;100644.03;;;6.86;89.40
81005;BME280;70472;47.592;17.640;2024-02-21T01:57:26;100647.69;;;6.85;89.46
81005;BME280;70472;47.592;17.640;2024-02-21T01:57:59;100642.34;;;6.85;89.59
81005;BME280;70472;47.592;17.640;2024-02-21T01:58:36;100641.75;;;6.81;89.37
81005;BME280;70472;47.592;17.640;2024-02-21T01:59:09;100643.34;;;6.84;89.32
81005;BME280;70472;47.592;17.640;2024-02-21T01:59:43;100640.81;;;6.82;89.02
81005;BME280;70472;47.592;17.640;2024-02-21T02:00:16;100641.25;;;6.87;88.91
81005;BME280;70472;47.592;17.640;2024-02-21T02:00:50;100640.28;;;6.88;88.33
81005;BME280;70472;47.592;17.640;2024-02-21T02:01:23;100635.91;;;6.87;88.32
81005;BME280;70472;47.592;17.640;2024-02-21T02:01:56;100648.00;;;6.91;86.75
81005;BME280;70472;47.592;17.640;2024-02-21T02:02:29;100640.16;;;6.90;86.92
81005;BME280;70472;47.592;17.640;2024-02-21T02:03:02;100636.50;;;6.91;87.42
81005;BME280;70472;47.592;17.640;2024-02-21T02:03:36;100637.47;;;6.90;87.38
81005;BME280;70472;47.592;17.640;2024-02-21T02:04:09;100645.22;;;6.93;87.10
81005;BME280;70472;47.592;17.640;2024-02-21T02:04:42;100633.69;;;6.92;86.78
81005;BME280;70472;47.592;17.640;2024-02-21T02:05:16;100637.81;;;6.96;87.04
81005;BME280;70472;47.592;17.640;2024-02-21T02:05:50;100634.28;;;6.96;87.11
81005;BME280;70472;47.592;17.640;2024-02-21T02:06:22;100638.78;;;6.95;88.32
81005;BME280;70472;47.592;17.640;2024-02-21T02:06:55;100636.50;;;6.91;88.00
81005;BME280;70472;47.592;17.640;2024-02-21T02:07:29;100633.69;;;6.92;87.76
81005;BME280;70472;47.592;17.640;2024-02-21T02:08:02;100640.34;;;6.98;88.04
81005;BME280;70472;47.592;17.640;2024-02-21T02:08:34;100637.94;;;6.95;88.21
81005;BME280;70472;47.592;17.640;2024-02-21T02:09:07;100633.69;;;6.92;87.28
81005;BME280;70472;47.592;17.640;2024-02-21T02:09:39;100633.44;;;6.95;86.82
81005;BME280;70472;47.592;17.640;2024-02-21T02:10:12;100628.69;;;6.99;85.96
81005;BME280;70472;47.592;17.640;2024-02-21T02:10:46;100632.19;;;7.00;85.29
81005;BME280;70472;47.592;17.640;2024-02-21T02:11:18;100630.41;;;7.00;85.03
81005;BME280;70472;47.592;17.640;2024-02-21T02:11:51;100631.25;;;7.01;85.80
81005;BME280;70472;47.592;17.640;2024-02-21T02:12:24;100628.28;;;7.04;86.76
81005;BME280;70472;47.592;17.640;2024-02-21T02:12:56;100625.63;;;7.04;85.92
81005;BME280;70472;47.592;17.640;2024-02-21T02:13:29;100623.81;;;7.04;86.05
81005;BME280;70472;47.592;17.640;2024-02-21T02:14:01;100629.97;;;7.05;86.37
81005;BME280;70472;47.592;17.640;2024-02-21T02:14:34;100626.38;;;7.06;87.04
81005;BME280;70472;47.592;17.640;2024-02-21T02:15:06;100633.38;;;7.07;85.95
81005;BME280;70472;47.592;17.640;2024-02-21T02:15:45;100623.41;;;7.09;86.90
81005;BME280;70472;47.592;17.640;2024-02-21T02:16:18;100628.06;;;7.07;86.34
81005;BME280;70472;47.592;17.640;2024-02-21T02:16:50;100627.31;;;7.05;86.57
81005;BME280;70472;47.592;17.640;2024-02-21T02:17:23;100630.25;;;7.02;86.00
81005;BME280;70472;47.592;17.640;2024-02-21T02:17:55;100621.28;;;7.03;86.23
81005;BME280;70472;47.592;17.640;2024-02-21T02:18:28;100626.22;;;7.07;85.72
81005;BME280;70472;47.592;17.640;2024-02-21T02:19:00;100616.97;;;7.11;85.67
81005;BME280;70472;47.592;17.640;2024-02-21T02:19:33;100618.06;;;7.09;85.38
81005;BME280;70472;47.592;17.640;2024-02-21T02:20:06;100622.19;;;7.13;85.44
81005;BME280;70472;47.592;17.640;2024-02-21T02:20:39;100621.44;;;7.11;84.26
81005;BME280;70472;47.592;17.640;2024-02-21T02:21:27;100627.38;;;7.14;85.35
81005;BME280;70472;47.592;17.640;2024-02-21T02:22:12;100620.06;;;7.16;85.34
81005;BME280;70472;47.592;17.640;2024-02-21T02:22:47;100619.25;;;7.16;85.57
81005;BME280;70472;47.592;17.640;2024-02-21T02:23:31;100623.59;;;7.17;86.45
81005;BME280;70472;47.592;17.640;2024-02-21T02:24:05;100615.59;;;7.17;86.45
81005;BME280;70472;47.592;17.640;2024-02-21T02:24:37;100623.72;;;7.15;86.01
81005;BME280;70472;47.592;17.640;2024-02-21T02:25:10;100617.84;;;7.12;85.38
81005;BME280;70472;47.592;17.640;2024-02-21T02:25:42;100619.63;;;7.11;85.33
81005;BME280;70472;47.592;17.640;2024-02-21T02:26:15;100623.88;;;7.14;86.28
81005;BME280;70472;47.592;17.640;2024-02-21T02:26:47;100615.59;;;7.17;86.71
81005;BME280;70472;47.592;17.640;2024-02-21T02:27:19;100621.06;;;7.15;86.09
81005;BME280;70472;47.592;17.640;2024-02-21T02:27:53;100618.69;;;7.12;85.87
81005;BME280;70472;47.592;17.640;2024-02-21T02:28:25;100613.44;;;7.11;85.96
81005;BME280;70472;47.592;17.640;2024-02-21T02:28:58;100614.72;;;7.07;86.22
81005;BME280;70472;47.592;17.640;2024-02-21T02:29:32;100612.75;;;7.09;86.36
81005;BME280;70472;47.592;17.640;2024-02-21T02:30:06;100615.03;;;7.13;85.83
81005;BME280;70472;47.592;17.640;2024-02-21T02:30:38;100614.75;;;7.16;83.46
81005;BME280;70472;47.592;17.640;2024-02-21T02:31:11;100615.59;;;7.17;82.83
81005;BME280;70472;47.592;17.640;2024-02-21T02:31:43;100613.19;;;7.14;83.76
81005;BME280;70472;47.592;17.640;2024-02-21T02:32:16;100612.50;;;7.12;83.96
81005;BME280;70472;47.592;17.640;2024-02-21T02:32:48;100612.50;;;7.12;84.64
81005;BME280;70472;47.592;17.640;2024-02-21T02:33:21;100611.50;;;7.13;84.73
81005;BME280;70472;47.592;17.640;2024-02-21T02:33:53;100615.56;;;7.07;84.33
81005;BME280;70472;47.592;17.640;2024-02-21T02:34:26;100603.75;;;7.10;85.36
81005;BME280;70472;47.592;17.640;2024-02-21T02:34:58;100605.44;;;7.11;85.37
81005;BME280;70472;47.592;17.640;2024-02-21T02:35:32;100607.41;;;7.09;85.50
81005;BME280;70472;47.592;17.640;2024-02-21T02:36:05;100610.22;;;7.07;84.93
81005;BME280;70472;47.592;17.640;2024-02-21T02:36:37;100609.22;;;7.08;85.48
81005;BME280;70472;47.592;17.640;2024-02-21T02:37:10;100612.75;;;7.09;84.64
81005;BME280;70472;47.592;17.640;2024-02-21T02:37:51;100609.09;;;7.10;85.71
81005;BME280;70472;47.592;17.640;2024-02-21T02:38:25;100603.31;;;7.05;84.26
81005;BME280;70472;47.592;17.640;2024-02-21T02:38:57;100598.38;;;7.00;85.13
81005;BME280;70472;47.592;17.640;2024-02-21T02:39:30;100609.16;;;6.99;84.69
81005;BME280;70472;47.592;17.640;2024-02-21T02:40:02;100606.50;;;6.99;85.03
81005;BME280;70472;47.592;17.640;2024-02-21T02:40:38;100611.00;;;6.98;85.27
81005;BME280;70472;47.592;17.640;2024-02-21T02:41:11;100607.34;;;6.99;86.14
81005;BME280;70472;47.592;17.640;2024-02-21T02:41:43;100616.00;;;6.91;85.75
81005;BME280;70472;47.592;17.640;2024-02-21T02:42:15;100610.69;;;6.91;86.02
81005;BME280;70472;47.592;17.640;2024-02-21T02:42:49;100606.78;;;6.95;85.63
81005;BME280;70472;47.592;17.640;2024-02-21T02:43:21;100609.59;;;6.94;85.61
81005;BME280;70472;47.592;17.640;2024-02-21T02:43:54;100606.03;;;6.93;85.73
81005;BME280;70472;47.592;17.640;2024-02-21T02:44:26;100610.22;;;6.86;85.05
81005;BME280;70472;47.592;17.640;2024-02-21T02:44:59;100606.84;;;6.84;85.85
81005;BME280;70472;47.592;17.640;2024-02-21T02:45:32;100614.56;;;6.87;85.94
81005;BME280;70472;47.592;17.640;2024-02-21T02:46:04;100606.56;;;6.87;85.57
81005;BME280;70472;47.592;17.640;2024-02-21T02:46:39;100614.56;;;6.87;84.29
81005;BME280;70472;47.592;17.640;2024-02-21T02:47:12;100608.72;;;6.93;85.55
81005;BME280;70472;47.592;17.640;2024-02-21T02:47:45;100610.09;;;6.88;85.22
81005;BME280;70472;47.592;17.640;2024-02-21T02:48:17;100602.22;;;6.86;84.97
81005;BME280;70472;47.592;17.640;2024-02-21T02:48:50;100610.94;;;6.88;85.71
81005;BME280;70472;47.592;17.640;2024-02-21T02:49:22;100608.53;;;6.85;84.79
81005;BME280;70472;47.592;17.640;2024-02-21T02:49:55;100611.19;;;6.85;84.01
81005;BME280;70472;47.592;17.640;2024-02-21T02:50:27;100614.56;;;6.87;85.32
81005;BME280;70472;47.592;17.640;2024-02-21T02:51:00;100613.63;;;6.88;84.85
81005;BME280;70472;47.592;17.640;2024-02-21T02:51:32;100606.13;;;6.82;85.09
81005;BME280;70472;47.592;17.640;2024-02-21T02:52:06;100609.50;;;6.84;85.25